Time;durP1;ratioP1;P1;durP2;ratioP2;P2;SDS_P1;SDS_P2;PMS_P1;PMS_P2;Temp;Humidity;BMP_temperature;BMP_pressure;BME280_temperature;BME280_humidity;BME280_pressure;Samples;Min_cycle;Max_cycle;Signal;HPM_P1;HPM_P2
2021/12/15 00:02:22;;;;;;;4.40;1.67;;;;;;;1.74;86.33;100365.47;1739084;79;20993;-56
2021/12/15 00:04:51;;;;;;;3.33;1.83;;;;;;;1.76;86.24;100364.14;1744002;79;22110;-57
2021/12/15 00:07:20;;;;;;;4.07;2.13;;;;;;;1.75;86.30;100363.25;1741245;79;20997;-57
2021/12/15 00:09:47;;;;;;;4.57;2.37;;;;;;;1.78;86.43;100363.70;1739954;79;21729;-56
2021/12/15 00:12:59;;;;;;;2.87;1.27;;;;;;;1.85;86.45;100353.05;1847323;75;26444;-54
2021/12/15 00:15:27;;;;;;;4.40;2.33;;;;;;;1.81;86.38;100350.40;1805530;77;22196;-56
2021/12/15 00:17:55;;;;;;;2.93;1.20;;;;;;;1.79;86.28;100360.13;1770629;77;22585;-57
2021/12/15 00:20:22;;;;;;;1.80;1.00;;;;;;;1.73;86.21;100373.42;1812343;77;22252;-54
2021/12/15 00:22:53;;;;;;;2.17;1.20;;;;;;;1.67;86.25;100363.72;1812382;77;20942;-58
2021/12/15 00:25:19;;;;;;;2.77;1.60;;;;;;;1.63;86.37;100364.60;1806617;77;20918;-57
2021/12/15 00:27:45;;;;;;;1.40;0.70;;;;;;;1.60;86.43;100361.09;1812153;77;20957;-55
2021/12/15 00:30:12;;;;;;;1.93;0.77;;;;;;;1.55;86.49;100363.73;1812326;77;21080;-58
2021/12/15 00:32:39;;;;;;;3.00;0.87;;;;;;;1.57;86.68;100355.78;1771180;78;21044;-55
2021/12/15 00:35:07;;;;;;;1.10;0.70;;;;;;;1.58;86.72;100361.09;1777701;78;21095;-53
2021/12/15 00:37:34;;;;;;;1.33;0.70;;;;;;;1.59;86.79;100364.19;1772092;78;21995;-53
2021/12/15 00:40:01;;;;;;;4.53;0.97;;;;;;;1.59;86.67;100359.32;1774194;78;21725;-54
2021/12/15 00:42:29;;;;;;;1.10;0.70;;;;;;;1.56;86.65;100363.30;1771707;78;21535;-57
2021/12/15 00:44:56;;;;;;;2.23;0.90;;;;;;;1.50;86.65;100366.41;1769067;78;21392;-56
2021/12/15 00:47:22;;;;;;;2.90;0.97;;;;;;;1.49;86.76;100374.38;1773066;78;22177;-57
2021/12/15 00:49:51;;;;;;;1.17;0.87;;;;;;;1.46;86.80;100372.59;1771765;78;21066;-54
2021/12/15 00:52:17;;;;;;;2.57;1.30;;;;;;;1.47;86.79;100370.83;1770008;78;21543;-55
2021/12/15 00:54:44;;;;;;;1.40;0.80;;;;;;;1.48;86.85;100365.53;1768791;78;21474;-53
2021/12/15 00:57:11;;;;;;;1.30;0.70;;;;;;;1.50;86.82;100370.84;1764032;78;21740;-57
2021/12/15 00:59:38;;;;;;;1.23;0.90;;;;;;;1.50;86.69;100372.16;1762426;78;21100;-55
2021/12/15 01:02:05;;;;;;;1.37;0.87;;;;;;;1.49;86.72;100377.91;1733440;80;21073;-52
2021/12/15 01:04:31;;;;;;;2.20;0.90;;;;;;;1.48;86.67;100367.30;1735710;79;21565;-55
2021/12/15 01:07:01;;;;;;;5.50;1.40;;;;;;;1.45;86.69;100366.84;1738738;79;21144;-56
2021/12/15 01:09:33;;;;;;;2.67;1.20;;;;;;;1.43;86.58;100368.64;1735826;79;20950;-55
2021/12/15 01:20:16;;;;;;;3.90;1.70;;;;;;;1.21;86.86;100352.30;1729364;80;21514;-55
2021/12/15 01:22:47;;;;;;;2.87;1.37;;;;;;;1.19;86.96;100340.84;1758198;79;21072;-57
2021/12/15 01:25:22;;;;;;;4.40;2.07;;;;;;;1.20;87.13;100343.02;1753296;79;21126;-55
2021/12/15 01:27:50;;;;;;;5.33;2.30;;;;;;;1.24;87.18;100348.77;1724720;80;21103;-57
2021/12/15 01:30:20;;;;;;;5.73;2.70;;;;;;;1.23;87.16;100349.66;1758334;79;21120;-56
2021/12/15 01:32:47;;;;;;;9.40;4.90;;;;;;;1.17;87.21;100343.92;1729500;80;21799;-56
2021/12/15 01:35:14;;;;;;;5.63;3.33;;;;;;;1.11;87.32;100339.92;1737832;80;21095;-56
2021/12/15 01:37:41;;;;;;;8.20;3.40;;;;;;;1.04;87.43;100333.75;1726097;80;21142;-56
2021/12/15 01:40:13;;;;;;;5.07;3.03;;;;;;;1.04;87.66;100328.89;1739552;79;21119;-54
2021/12/15 01:42:38;;;;;;;9.00;4.57;;;;;;;1.02;87.77;100338.16;1740065;79;21071;-55
2021/12/15 01:48:07;;;;;;;5.87;2.20;;;;;;;1.02;88.04;100343.47;1741627;79;20963;-56
2021/12/15 01:50:35;;;;;;;6.93;3.40;;;;;;;1.04;88.04;100340.38;1740196;79;21029;-54
2021/12/15 01:53:03;;;;;;;6.63;3.57;;;;;;;1.05;87.96;100342.16;1738685;79;21489;-56
2021/12/15 01:55:31;;;;;;;7.33;3.10;;;;;;;1.04;87.95;100335.52;1742912;79;22104;-55
2021/12/15 01:57:57;;;;;;;6.33;2.77;;;;;;;1.05;88.01;100343.48;1743001;79;21371;-57
2021/12/15 02:00:29;;;;;;;5.23;3.30;;;;;;;1.05;87.93;100349.22;1745723;79;20898;-58
2021/12/15 02:02:57;;;;;;;5.87;2.57;;;;;;;1.02;87.84;100347.44;1743633;79;21331;-57
2021/12/15 02:05:27;;;;;;;2.93;2.00;;;;;;;1.03;87.83;100358.94;1742814;79;21297;-56
2021/12/15 02:07:54;;;;;;;3.00;1.70;;;;;;;1.01;87.83;100358.96;1735725;80;21366;-56
2021/12/15 02:10:23;;;;;;;4.30;1.70;;;;;;;0.99;87.71;100356.74;1730129;80;21126;-56
2021/12/15 02:12:50;;;;;;;3.27;1.37;;;;;;;1.00;87.78;100357.62;1743464;80;21285;-55
2021/12/15 02:15:21;;;;;;;2.43;1.80;;;;;;;1.04;87.92;100355.40;1746727;80;21163;-55
2021/12/15 02:17:50;;;;;;;3.07;1.50;;;;;;;1.09;87.82;100352.33;1746162;80;21277;-55
2021/12/15 02:20:19;;;;;;;2.57;2.10;;;;;;;1.08;87.60;100348.79;1746567;80;20924;-54
2021/12/15 02:22:46;;;;;;;4.80;1.87;;;;;;;1.04;87.45;100346.13;1745986;80;21774;-56
2021/12/15 02:25:16;;;;;;;4.60;2.40;;;;;;;1.00;87.52;100346.59;1746851;80;21384;-55
2021/12/15 02:27:42;;;;;;;3.00;1.63;;;;;;;1.01;87.58;100342.17;1743169;80;21147;-55
2021/12/15 02:31:10;;;;;;;3.83;1.90;;;;;;;1.01;87.64;100335.10;1748122;80;21420;-57
2021/12/15 02:33:05;;;;;;;5.60;2.23;;;;;;;1.03;87.61;100337.72;1713960;80;21095;-56
2021/12/15 02:38:05;;;;;;;2.62;1.52;;;;;;;1.03;87.63;100334.63;1743513;80;22519;-57
2021/12/15 02:40:33;;;;;;;4.17;2.50;;;;;;;1.05;87.69;100341.27;1746235;80;21513;-56
2021/12/15 02:43:00;;;;;;;2.80;1.83;;;;;;;1.06;87.66;100342.59;1755135;80;20929;-57
2021/12/15 02:45:26;;;;;;;2.57;2.07;;;;;;;1.09;87.67;100339.95;1748986;80;21797;-56
2021/12/15 02:47:53;;;;;;;3.63;2.17;;;;;;;1.11;87.67;100336.84;1746265;79;21103;-57
2021/12/15 02:50:29;;;;;;;1.97;1.27;;;;;;;1.12;87.35;100335.07;1747679;80;20914;-56
2021/12/15 02:53:00;;;;;;;2.57;2.00;;;;;;;1.08;87.33;100341.28;1747033;80;21039;-53
2021/12/15 02:55:28;;;;;;;5.23;2.50;;;;;;;1.09;87.41;100343.93;1747066;80;21250;-56
2021/12/15 02:57:55;;;;;;;3.87;2.00;;;;;;;1.13;87.33;100355.40;1746958;80;21526;-57
2021/12/15 03:00:25;;;;;;;5.17;2.97;;;;;;;1.11;87.20;100352.74;1751849;80;21326;-53
2021/12/15 03:03:37;;;;;;;3.20;2.70;;;;;;;1.10;87.25;100351.45;1747750;80;20889;-56
2021/12/15 03:05:45;;;;;;;4.33;3.03;;;;;;;1.09;87.32;100357.19;1745500;80;20925;-54
2021/12/15 03:08:17;;;;;;;3.83;3.13;;;;;;;1.11;87.38;100349.20;1746440;80;21366;-54
2021/12/15 03:16:19;;;;;;;2.60;1.73;;;;;;;1.13;87.21;100349.66;1735197;79;21080;-53
2021/12/15 03:18:47;;;;;;;3.77;2.07;;;;;;;1.19;87.27;100347.46;1737026;79;21064;-54
2021/12/15 03:21:21;;;;;;;2.33;1.83;;;;;;;1.24;87.27;100347.44;1737691;79;21509;-57
2021/12/15 03:24:02;;;;;;;3.20;2.07;;;;;;;1.28;87.25;100347.42;1738241;79;20898;-54
2021/12/15 03:26:36;;;;;;;5.77;2.80;;;;;;;1.30;87.07;100343.45;1737541;79;22191;-52
2021/12/15 03:35:01;;;;;;;4.43;2.17;;;;;;;1.19;86.73;100343.48;1740010;79;21143;-58
2021/12/15 03:37:23;;;;;;;4.50;2.30;;;;;;;1.16;86.87;100347.45;1731558;79;21119;-56
2021/12/15 03:39:52;;;;;;;2.63;2.23;;;;;;;1.14;86.87;100356.73;1740205;79;21252;-52
2021/12/15 03:42:23;;;;;;;3.07;2.47;;;;;;;1.14;86.82;100350.55;1736834;79;20941;-53
2021/12/15 03:44:49;;;;;;;3.87;3.20;;;;;;;1.13;86.86;100359.37;1739364;79;20918;-54
2021/12/15 03:47:23;;;;;;;5.33;3.60;;;;;;;1.14;86.83;100358.50;1740876;79;21092;-53
2021/12/15 03:49:51;;;;;;;4.83;4.25;;;;;;;1.13;86.87;100358.94;1740732;79;27416;-52
2021/12/15 03:52:18;;;;;;;7.17;4.80;;;;;;;1.10;86.78;100364.70;1737378;79;22899;-55
2021/12/15 03:54:45;;;;;;;8.20;3.70;;;;;;;1.08;86.97;100366.02;1738759;79;21308;-53
2021/12/15 03:57:11;;;;;;;6.57;4.00;;;;;;;1.10;87.06;100360.28;1737239;79;21263;-54
2021/12/15 03:59:42;;;;;;;6.10;3.80;;;;;;;1.13;87.10;100372.64;1738058;79;22104;-53
2021/12/15 04:02:07;;;;;;;5.40;4.40;;;;;;;1.16;87.22;100370.00;1735159;79;21075;-55
2021/12/15 04:04:33;;;;;;;4.37;3.83;;;;;;;1.19;87.15;100372.66;1739114;79;21127;-52
2021/12/15 04:07:00;;;;;;;8.17;4.87;;;;;;;1.19;87.16;100365.14;1740889;79;21128;-55
2021/12/15 04:09:27;;;;;;;5.70;4.23;;;;;;;1.18;87.09;100369.56;1737943;79;21104;-58
2021/12/15 04:11:54;;;;;;;6.23;4.63;;;;;;;1.14;87.00;100377.95;1737971;79;21372;-58
2021/12/15 04:14:28;;;;;;;5.67;3.67;;;;;;;1.04;86.98;100376.17;1742114;79;20933;-55
2021/12/15 04:17:04;;;;;;;5.27;3.63;;;;;;;0.93;87.02;100373.98;1739714;79;21380;-55
2021/12/15 04:19:32;;;;;;;4.30;3.43;;;;;;;0.87;87.09;100377.05;1739960;79;21036;-55
2021/12/15 04:22:00;;;;;;;4.03;3.57;;;;;;;0.81;87.24;100377.05;1741580;79;20953;-59
2021/12/15 04:24:27;;;;;;;5.37;4.20;;;;;;;0.79;87.38;100379.69;1740152;79;21087;-57
2021/12/15 04:26:56;;;;;;;4.77;3.40;;;;;;;0.81;87.48;100388.98;1739333;79;21466;-59
2021/12/15 04:29:23;;;;;;;4.23;3.23;;;;;;;0.77;87.49;100388.07;1738012;79;21620;-58
2021/12/15 04:31:55;;;;;;;6.30;4.27;;;;;;;0.74;87.41;100388.09;1739957;79;21089;-59
2021/12/15 04:34:22;;;;;;;6.27;3.77;;;;;;;0.69;87.40;100394.69;1739517;79;20922;-57
2021/12/15 04:36:49;;;;;;;4.77;3.40;;;;;;;0.63;87.44;100396.02;1740385;79;20926;-57
2021/12/15 04:39:20;;;;;;;5.90;4.43;;;;;;;0.60;87.53;100401.73;1740044;79;21047;-56
2021/12/15 04:41:50;;;;;;;5.40;3.23;;;;;;;0.62;87.67;100400.86;1737317;79;21137;-57
2021/12/15 04:44:16;;;;;;;5.27;3.13;;;;;;;0.66;87.72;100407.06;1735363;80;21569;-58
2021/12/15 04:46:50;;;;;;;4.27;2.97;;;;;;;0.66;87.57;100408.39;1705029;81;21553;-58
2021/12/15 04:49:18;;;;;;;4.53;2.77;;;;;;;0.66;87.56;100413.69;1737023;79;22254;-58
2021/12/15 04:51:47;;;;;;;5.00;3.37;;;;;;;0.67;87.63;100415.46;1738493;79;21107;-58
2021/12/15 04:54:16;;;;;;;9.03;3.43;;;;;;;0.70;87.65;100418.09;1735385;79;21170;-54
2021/12/15 04:56:42;;;;;;;6.07;3.00;;;;;;;0.71;87.50;100422.52;1740114;79;21547;-56
2021/12/15 04:59:11;;;;;;;5.13;2.20;;;;;;;0.70;87.41;100424.28;1742579;79;21067;-55
2021/12/15 05:01:38;;;;;;;5.23;2.60;;;;;;;0.68;87.33;100416.77;1735807;79;21076;-56
2021/12/15 05:04:04;;;;;;;5.27;2.50;;;;;;;0.67;87.29;100419.00;1735647;79;22265;-57
2021/12/15 05:06:32;;;;;;;4.23;2.00;;;;;;;0.67;87.25;100414.14;1736620;79;21148;-56
2021/12/15 05:08:59;;;;;;;4.47;2.07;;;;;;;0.69;87.24;100417.66;1734355;79;21700;-59
2021/12/15 05:11:26;;;;;;;8.07;2.37;;;;;;;0.71;87.23;100418.11;1740490;79;21380;-57
2021/12/15 05:13:52;;;;;;;6.57;3.43;;;;;;;0.69;87.10;100415.89;1737032;79;21148;-55
2021/12/15 05:16:20;;;;;;;5.23;3.03;;;;;;;0.66;86.93;100415.02;1744651;80;21571;-56
2021/12/15 05:18:49;;;;;;;5.93;3.00;;;;;;;0.61;86.96;100412.34;1746020;79;21467;-56
2021/12/15 05:21:17;;;;;;;5.53;2.90;;;;;;;0.63;87.10;100403.96;1746381;79;21092;-54
2021/12/15 05:23:49;;;;;;;5.40;2.73;;;;;;;0.61;86.93;100413.66;1745976;80;20952;-57
2021/12/15 05:26:14;;;;;;;6.10;3.13;;;;;;;0.61;87.02;100413.66;1738599;80;20934;-59
2021/12/15 05:28:40;;;;;;;6.60;4.13;;;;;;;0.63;87.07;100411.91;1745823;79;21459;-58
2021/12/15 05:31:07;;;;;;;5.07;3.90;;;;;;;0.68;87.22;100419.41;1748560;79;21471;-60
2021/12/15 05:33:33;;;;;;;6.63;4.03;;;;;;;0.71;87.11;100418.11;1747007;79;21454;-57
2021/12/15 05:36:00;;;;;;;5.73;3.57;;;;;;;0.70;86.86;100416.33;1748807;78;20934;-55
2021/12/15 05:38:27;;;;;;;7.20;3.97;;;;;;;0.68;86.83;100416.77;1746955;79;20999;-55
2021/12/15 05:40:54;;;;;;;7.77;3.63;;;;;;;0.66;86.79;100427.83;1747282;79;20902;-59
2021/12/15 05:43:20;;;;;;;5.77;2.97;;;;;;;0.66;86.77;100440.19;1752173;79;21089;-57
2021/12/15 05:45:48;;;;;;;7.40;3.83;;;;;;;0.65;86.85;100437.97;1748363;79;20913;-60
2021/12/15 05:48:16;;;;;;;7.03;3.93;;;;;;;0.67;86.83;100438.88;1751483;79;20898;-59
2021/12/15 05:50:44;;;;;;;6.23;3.47;;;;;;;0.71;86.87;100449.91;1749060;79;20936;-59
2021/12/15 05:53:11;;;;;;;5.07;3.13;;;;;;;0.71;86.61;100449.02;1749584;79;20921;-56
2021/12/15 05:55:39;;;;;;;4.47;3.00;;;;;;;0.68;86.61;100449.88;1750177;78;21573;-58
2021/12/15 05:58:05;;;;;;;4.93;2.07;;;;;;;0.67;86.63;100445.50;1748527;79;20909;-57
2021/12/15 06:00:34;;;;;;;3.43;1.87;;;;;;;0.67;86.57;100455.20;1749284;79;20999;-56
2021/12/15 06:03:01;;;;;;;5.13;2.57;;;;;;;0.65;86.45;100451.66;1751205;79;21074;-56
2021/12/15 06:05:27;;;;;;;3.03;1.50;;;;;;;0.66;86.55;100456.97;1747992;79;20914;-59
2021/12/15 06:07:54;;;;;;;3.10;1.67;;;;;;;0.68;86.46;100458.30;1749421;78;21482;-56
2021/12/15 06:10:24;;;;;;;4.53;1.73;;;;;;;0.67;86.41;100459.18;1750688;78;21869;-59
2021/12/15 06:12:53;;;;;;;4.43;2.53;;;;;;;0.70;86.48;100464.47;1752556;79;21323;-56
2021/12/15 06:15:22;;;;;;;3.90;1.73;;;;;;;0.66;86.37;100463.59;1737862;79;21576;-57
2021/12/15 06:18:03;;;;;;;3.53;2.80;;;;;;;0.65;86.43;100463.14;1741396;79;20942;-56
2021/12/15 06:20:30;;;;;;;5.07;2.13;;;;;;;0.68;86.37;100470.23;1742021;79;21078;-57
2021/12/15 06:23:00;;;;;;;3.77;2.73;;;;;;;0.63;86.38;100474.17;1739463;79;20945;-57
2021/12/15 06:25:28;;;;;;;3.00;2.30;;;;;;;0.59;86.41;100475.06;1747072;79;20914;-55
2021/12/15 06:27:56;;;;;;;4.47;2.07;;;;;;;0.61;86.59;100472.39;1741111;79;21413;-60
2021/12/15 06:30:23;;;;;;;3.90;2.53;;;;;;;0.66;86.82;100475.52;1737718;79;21147;-59
2021/12/15 06:32:50;;;;;;;4.00;2.53;;;;;;;0.72;86.82;100476.85;1739950;79;21118;-57
2021/12/15 06:35:16;;;;;;;3.73;2.87;;;;;;;0.72;86.57;100477.29;1735823;79;21132;-56
2021/12/15 06:37:42;;;;;;;4.40;2.07;;;;;;;0.66;86.41;100479.49;1739916;79;21080;-55
2021/12/15 06:40:10;;;;;;;3.73;1.80;;;;;;;0.65;86.56;100488.75;1742065;80;21103;-57
2021/12/15 06:42:39;;;;;;;3.73;1.80;;;;;;;0.64;86.62;100491.84;1748819;79;21147;-55
2021/12/15 06:45:08;;;;;;;3.10;1.13;;;;;;;0.67;86.67;100485.68;1752136;79;22346;-54
2021/12/15 06:58:24;;;;;;;;;;;;;;;0.76;86.15;100491.01;1751692;79;21146;-55
2021/12/15 07:00:56;;;;;;;5.07;1.30;;;;;;;0.77;85.98;100493.22;1746729;80;20238;-55
2021/12/15 07:03:23;;;;;;;2.40;1.00;;;;;;;0.77;85.80;100493.22;1744682;79;21175;-54
2021/12/15 07:05:50;;;;;;;5.10;1.53;;;;;;;0.76;85.75;100489.69;1742127;79;21096;-52
2021/12/15 07:08:17;;;;;;;4.80;1.20;;;;;;;0.78;85.73;100489.22;1739534;79;21120;-54
2021/12/15 07:10:48;;;;;;;2.13;1.00;;;;;;;0.81;85.70;100490.56;1750031;79;21577;-52
2021/12/15 07:13:16;;;;;;;2.13;0.90;;;;;;;0.85;85.44;100491.48;1743930;79;21590;-55
2021/12/15 07:15:45;;;;;;;3.07;0.97;;;;;;;0.85;85.26;100487.50;1747553;79;21080;-53
2021/12/15 07:18:13;;;;;;;3.30;0.90;;;;;;;0.85;85.12;100492.33;1743101;79;20993;-55
2021/12/15 07:20:50;;;;;;;7.27;0.90;;;;;;;0.85;84.92;100495.45;1741232;79;21067;-57
2021/12/15 07:23:17;;;;;;;2.62;1.00;;;;;;;0.84;84.63;100495.89;1744403;79;26112;-56
2021/12/15 07:25:50;;;;;;;2.30;1.10;;;;;;;0.86;84.69;100496.75;1743448;79;21131;-53
2021/12/15 07:28:16;;;;;;;2.80;1.00;;;;;;;0.90;84.67;100502.95;1736592;79;21568;-56
2021/12/15 07:30:42;;;;;;;3.70;1.53;;;;;;;0.95;84.63;100507.82;1739860;79;21096;-54
2021/12/15 07:33:10;;;;;;;1.73;1.00;;;;;;;0.99;84.52;100511.83;1739034;79;21048;-55
2021/12/15 07:35:37;;;;;;;1.53;0.90;;;;;;;1.01;84.32;100509.19;1740155;79;21410;-59
2021/12/15 07:38:04;;;;;;;1.73;0.60;;;;;;;1.01;84.02;100517.14;1736538;79;21064;-54
2021/12/15 07:40:31;;;;;;;3.50;0.60;;;;;;;0.97;83.17;100515.34;1741125;79;22182;-56
2021/12/15 07:43:06;;;;;;;2.70;0.70;;;;;;;0.94;82.85;100517.97;1738934;79;21052;-57
2021/12/15 07:45:49;;;;;;;0.80;0.67;;;;;;;0.91;82.75;100519.31;1740620;79;21505;-54
2021/12/15 07:48:15;;;;;;;0.50;0.40;;;;;;;0.90;82.61;100530.80;1738009;79;21608;-52
2021/12/15 07:50:45;;;;;;;0.50;0.40;;;;;;;0.90;81.82;100533.44;1737568;79;21529;-54
2021/12/15 07:53:12;;;;;;;1.27;0.40;;;;;;;0.87;81.66;100540.05;1743293;79;21131;-53
2021/12/15 07:55:38;;;;;;;0.70;0.43;;;;;;;0.85;81.63;100545.34;1739705;79;21068;-53
2021/12/15 07:58:06;;;;;;;0.70;0.40;;;;;;;0.88;81.38;100548.45;1743911;79;21384;-57
2021/12/15 08:00:35;;;;;;;1.07;0.57;;;;;;;0.85;80.50;100547.13;1743072;79;22328;-54
2021/12/15 08:03:02;;;;;;;0.90;0.50;;;;;;;0.81;80.35;100542.69;1740930;79;20902;-59
2021/12/15 08:05:28;;;;;;;0.50;0.40;;;;;;;0.81;80.14;100549.31;1738104;79;20965;-55
2021/12/15 08:07:55;;;;;;;0.70;0.33;;;;;;;0.80;79.78;100555.48;1739408;79;21004;-54
2021/12/15 08:10:21;;;;;;;1.03;0.40;;;;;;;0.80;79.29;100552.40;1741186;79;20910;-53
2021/12/15 08:12:48;;;;;;;0.60;0.50;;;;;;;0.74;78.69;100546.65;1742403;79;21637;-55
2021/12/15 08:15:15;;;;;;;1.20;0.40;;;;;;;0.73;78.41;100550.61;1736776;79;21493;-53
2021/12/15 08:17:43;;;;;;;0.40;0.30;;;;;;;0.71;78.40;100545.73;1739797;79;21482;-54
2021/12/15 08:20:11;;;;;;;1.10;0.40;;;;;;;0.72;78.26;100551.48;1730253;80;22217;-53
2021/12/15 08:22:38;;;;;;;0.50;0.33;;;;;;;0.74;78.09;100548.41;1739072;79;20902;-56
2021/12/15 08:25:07;;;;;;;0.70;0.40;;;;;;;0.77;77.99;100548.87;1740303;79;20949;-55
2021/12/15 08:27:34;;;;;;;0.40;0.30;;;;;;;0.78;77.80;100547.52;1741353;80;21318;-55
2021/12/15 08:30:00;;;;;;;0.47;0.37;;;;;;;0.77;77.51;100556.34;1748260;79;21279;-54
2021/12/15 08:32:27;;;;;;;0.40;0.30;;;;;;;0.78;77.63;100555.91;1745483;79;20969;-53
2021/12/15 08:34:54;;;;;;;1.73;0.67;;;;;;;0.80;77.64;100553.72;1746580;79;21470;-53
2021/12/15 08:37:21;;;;;;;2.00;0.60;;;;;;;0.81;77.53;100554.17;1747212;79;21561;-54
2021/12/15 08:39:47;;;;;;;2.07;0.87;;;;;;;0.82;77.40;100553.30;1738851;80;21451;-56
2021/12/15 08:42:14;;;;;;;0.80;0.50;;;;;;;0.84;77.60;100550.22;1738970;79;20902;-55
2021/12/15 08:44:40;;;;;;;0.70;0.40;;;;;;;0.88;77.53;100546.69;1735989;79;20945;-58
2021/12/15 08:47:08;;;;;;;0.77;0.40;;;;;;;0.86;77.14;100548.87;1737849;79;21005;-56
2021/12/15 08:49:34;;;;;;;0.70;0.40;;;;;;;0.83;77.16;100554.19;1736158;79;22217;-54
2021/12/15 08:52:01;;;;;;;1.37;0.30;;;;;;;0.84;77.23;100551.55;1737158;79;21423;-54
2021/12/15 08:54:28;;;;;;;0.40;0.20;;;;;;;0.85;76.97;100542.69;1741059;79;20867;-55
2021/12/15 08:56:55;;;;;;;0.47;0.30;;;;;;;0.84;76.48;100550.66;1737257;79;21240;-54
2021/12/15 08:59:22;;;;;;;0.57;0.30;;;;;;;0.83;76.46;100552.86;1744574;79;20984;-55
2021/12/15 09:01:50;;;;;;;1.00;0.40;;;;;;;0.84;76.49;100546.69;1736603;79;22163;-57
2021/12/15 09:04:16;;;;;;;0.50;0.40;;;;;;;0.87;76.50;100546.67;1737274;79;21062;-57
2021/12/15 09:06:43;;;;;;;0.73;0.50;;;;;;;0.82;76.65;100537.84;1737488;79;20965;-55
2021/12/15 09:09:11;;;;;;;0.70;0.40;;;;;;;0.79;77.01;100531.19;1743311;79;21507;-56
2021/12/15 09:11:38;;;;;;;2.80;0.57;;;;;;;0.78;77.24;100536.04;1740790;79;20977;-58
2021/12/15 09:14:06;;;;;;;0.97;0.60;;;;;;;0.74;77.52;100534.72;1738632;79;21839;-54
2021/12/15 09:16:35;;;;;;;0.90;0.40;;;;;;;0.72;77.56;100533.83;1739608;79;21000;-54
2021/12/15 09:19:02;;;;;;;0.80;0.50;;;;;;;0.66;77.75;100532.48;1738396;81;21127;-56
2021/12/15 09:21:30;;;;;;;0.70;0.50;;;;;;;0.65;77.93;100529.82;1742685;81;20973;-53
2021/12/15 09:23:59;;;;;;;0.90;0.50;;;;;;;0.66;78.17;100528.52;1738588;81;20882;-56
2021/12/15 09:26:26;;;;;;;0.60;0.50;;;;;;;0.70;78.36;100528.95;1739468;81;21107;-57
2021/12/15 09:28:53;;;;;;;0.80;0.50;;;;;;;0.74;78.31;100520.59;1737431;81;20977;-57
2021/12/15 09:31:21;;;;;;;0.90;0.60;;;;;;;0.76;78.29;100528.11;1741285;81;20862;-57
2021/12/15 09:33:50;;;;;;;1.33;0.50;;;;;;;0.77;78.20;100527.67;1740238;81;20929;-54
2021/12/15 09:36:18;;;;;;;0.53;0.30;;;;;;;0.74;78.17;100524.13;1739350;81;21096;-55
2021/12/15 09:38:47;;;;;;;0.40;0.30;;;;;;;0.71;77.41;100528.08;1744169;81;22167;-54
2021/12/15 09:41:15;;;;;;;0.73;0.40;;;;;;;0.67;76.98;100518.80;1741586;81;21040;-57
2021/12/15 09:43:44;;;;;;;0.60;0.40;;;;;;;0.66;77.16;100522.32;1736428;81;20985;-58
2021/12/15 09:46:25;;;;;;;0.70;0.33;;;;;;;0.72;77.40;100523.66;1744928;81;21084;-53
2021/12/15 10:06:01;;;;;;;0.70;0.50;;;;;;;0.69;76.43;100521.87;1662866;85;21125;-57
2021/12/15 10:18:56;;;;;;;0.57;0.40;;;;;;;0.74;76.42;100506.90;1741534;79;21576;-53
2021/12/15 10:21:28;;;;;;;1.67;0.50;;;;;;;0.76;76.23;100500.28;1743254;79;21049;-59
2021/12/15 10:23:55;;;;;;;1.13;0.60;;;;;;;0.73;75.46;100504.23;1734376;79;21052;-55
2021/12/15 10:26:22;;;;;;;2.37;0.50;;;;;;;0.63;75.39;100499.78;1747152;79;21085;-54
2021/12/15 10:28:52;;;;;;;0.80;0.50;;;;;;;0.57;75.53;100502.41;1738446;79;21474;-52
2021/12/15 10:31:17;;;;;;;0.70;0.40;;;;;;;0.55;75.60;100501.52;1737363;79;23303;-53
2021/12/15 10:33:58;;;;;;;0.93;0.60;;;;;;;0.55;75.65;100497.11;1740710;79;21033;-58
2021/12/15 10:36:32;;;;;;;0.90;0.50;;;;;;;0.52;75.32;100500.16;1742558;79;21514;-58
2021/12/15 10:39:04;;;;;;;0.67;0.40;;;;;;;0.47;75.32;100490.00;1744233;79;21068;-54
2021/12/15 10:41:38;;;;;;;0.70;0.40;;;;;;;0.47;75.50;100492.22;1741376;79;21039;-52
2021/12/15 10:44:14;;;;;;;0.47;0.40;;;;;;;0.48;75.58;100493.10;1739155;79;21072;-57
2021/12/15 10:46:50;;;;;;;0.50;0.30;;;;;;;0.50;75.60;100496.66;1744994;79;21091;-55
2021/12/15 10:49:26;;;;;;;0.57;0.33;;;;;;;0.51;75.61;100493.98;1736765;79;21700;-54
2021/12/15 10:52:06;;;;;;;0.60;0.47;;;;;;;0.57;75.61;100492.70;1741900;79;21549;-55
2021/12/15 10:54:46;;;;;;;0.50;0.30;;;;;;;0.58;75.21;100487.86;1735333;79;21088;-54
2021/12/15 10:57:17;;;;;;;0.70;0.50;;;;;;;0.57;74.86;100487.41;1740090;79;21426;-54
2021/12/15 10:59:53;;;;;;;0.50;0.30;;;;;;;0.52;74.59;100489.13;1745359;79;21510;-55
2021/12/15 11:02:24;;;;;;;0.30;0.20;;;;;;;0.51;74.68;100484.70;1739626;79;20918;-54
2021/12/15 11:05:05;;;;;;;0.33;0.30;;;;;;;0.53;74.48;100491.34;1711843;80;21140;-55
2021/12/15 11:07:36;;;;;;;0.60;0.40;;;;;;;0.55;74.57;100489.16;1735428;79;21091;-53
2021/12/15 11:10:20;;;;;;;0.63;0.40;;;;;;;0.58;74.18;100490.50;1737002;79;22872;-58
2021/12/15 11:12:53;;;;;;;0.57;0.40;;;;;;;0.57;73.94;100487.84;1740435;79;21704;-54
2021/12/15 11:15:40;;;;;;;0.60;0.50;;;;;;;0.55;73.97;100490.48;1740357;79;21507;-57
2021/12/15 11:18:16;;;;;;;0.60;0.30;;;;;;;0.55;74.02;100490.48;1780724;78;20902;-53
2021/12/15 11:20:49;;;;;;;1.47;0.30;;;;;;;0.50;73.72;100496.22;1746498;80;20990;-52
2021/12/15 11:23:20;;;;;;;0.90;0.30;;;;;;;0.46;73.75;100489.12;1749844;79;21447;-55
2021/12/15 11:26:01;;;;;;;0.40;0.30;;;;;;;0.46;73.76;100488.23;1751243;79;21036;-54
2021/12/15 11:28:33;;;;;;;0.60;0.40;;;;;;;0.43;73.62;100488.20;1760396;79;20897;-57
2021/12/15 11:31:13;;;;;;;0.50;0.40;;;;;;;0.39;73.66;100493.95;1746364;80;20952;-57
2021/12/15 11:33:48;;;;;;;0.47;0.40;;;;;;;0.35;73.59;100494.36;1777135;78;20925;-57
2021/12/15 11:36:22;;;;;;;0.60;0.50;;;;;;;0.30;73.51;100490.81;1747124;80;21111;-53
2021/12/15 11:38:59;;;;;;;0.75;0.50;;;;;;;0.29;73.43;100494.77;1756004;79;20913;-55
2021/12/15 11:41:30;;;;;;;0.50;0.40;;;;;;;0.24;73.44;100489.91;1755212;79;20952;-58
2021/12/15 11:44:02;;;;;;;0.60;0.40;;;;;;;0.23;73.34;100492.11;1755406;79;20985;-53
2021/12/15 11:46:38;;;;;;;0.50;0.40;;;;;;;0.22;73.37;100491.66;1749763;79;21031;-53
2021/12/15 11:49:14;;;;;;;1.00;0.50;;;;;;;0.22;73.25;100492.98;1775595;78;21662;-53
2021/12/15 11:51:52;;;;;;;0.63;0.50;;;;;;;0.21;73.19;100489.88;1774994;78;20889;-53
2021/12/15 11:54:32;;;;;;;0.40;0.40;;;;;;;0.19;73.23;100487.66;1748929;80;20938;-53
2021/12/15 11:57:26;;;;;;;1.13;0.50;;;;;;;0.21;73.38;100484.16;1749870;80;20928;-54
2021/12/15 11:59:56;;;;;;;1.17;0.40;;;;;;;0.24;73.35;100482.85;1721634;80;22424;-53
2021/12/15 12:02:30;;;;;;;0.70;0.40;;;;;;;0.25;73.01;100486.39;1745456;80;21148;-56
2021/12/15 12:05:10;;;;;;;1.20;0.50;;;;;;;0.23;73.12;100489.46;1764518;78;21048;-54
2021/12/15 12:07:47;;;;;;;0.50;0.40;;;;;;;0.22;73.14;100491.22;1741877;80;21041;-55
2021/12/15 12:10:26;;;;;;;0.70;0.40;;;;;;;0.25;73.13;100489.04;1747466;80;21072;-54
2021/12/15 12:13:05;;;;;;;0.63;0.50;;;;;;;0.25;73.27;100488.59;1741627;80;21807;-54
2021/12/15 12:15:33;;;;;;;4.37;0.53;;;;;;;0.29;73.36;100490.80;1740100;79;21136;-56
2021/12/15 12:18:05;;;;;;;2.83;0.60;;;;;;;0.32;73.38;100485.53;1733044;79;21475;-58
2021/12/15 12:20:39;;;;;;;0.70;0.60;;;;;;;0.32;73.30;100489.50;1750063;79;21608;-55
2021/12/15 12:23:09;;;;;;;1.60;0.60;;;;;;;0.24;73.50;100486.83;1735888;79;21120;-54
2021/12/15 12:25:45;;;;;;;2.60;0.70;;;;;;;0.21;73.83;100484.59;1744662;79;21561;-59
2021/12/15 12:30:22;;;;;;;1.67;0.80;;;;;;;0.11;74.30;100490.70;1791901;78;26457;-59
2021/12/15 12:32:50;;;;;;;2.73;0.90;;;;;;;-0.08;74.71;100495.88;1774626;79;21089;-56
2021/12/15 12:35:21;;;;;;;1.00;0.70;;;;;;;-0.18;75.11;100503.34;1771052;79;23316;-59
2021/12/15 12:37:59;;;;;;;1.00;0.70;;;;;;;-0.20;75.49;100499.79;1703645;82;21363;-56
2021/12/15 12:40:32;;;;;;;1.47;1.37;;;;;;;-0.22;75.75;100497.56;1714263;82;21475;-59
2021/12/15 12:42:59;;;;;;;1.97;0.80;;;;;;;-0.19;76.11;100502.00;1719503;82;21064;-57
2021/12/15 12:45:36;;;;;;;1.20;0.67;;;;;;;-0.16;76.39;100492.73;1714914;82;21156;-57
2021/12/15 12:48:43;;;;;;;1.12;0.70;;;;;;;-0.13;76.43;100494.09;1715179;82;22201;-57
2021/12/15 12:59:46;;;;;;;4.37;1.10;;;;;;;-0.21;77.08;100505.95;1687889;82;21596;-58
2021/12/15 13:02:40;;;;;;;5.13;3.43;;;;;;;-0.22;77.22;100507.27;1695160;82;22122;-54